createdAt,value
2023-04-03T00:00:36.899Z,79.30
2023-04-03T00:03:04.023Z,79.30
2023-04-03T00:05:30.969Z,78.70
2023-04-03T00:07:57.708Z,78.90
2023-04-03T00:10:24.621Z,79.20
2023-04-03T00:12:51.343Z,78.90
2023-04-03T00:15:18.231Z,78.90
2023-04-03T00:17:45.138Z,78.90
2023-04-03T00:20:12.039Z,78.60
2023-04-03T00:22:38.846Z,79.20
2023-04-03T00:25:06.134Z,79.40
2023-04-03T00:27:32.904Z,79.20
2023-04-03T00:29:59.622Z,79.30
2023-04-03T00:32:26.373Z,79.40
2023-04-03T00:34:53.298Z,79.30
2023-04-03T00:37:20.410Z,79.40
2023-04-03T00:39:47.142Z,79.50
2023-04-03T00:42:13.877Z,79.40
2023-04-03T00:44:40.793Z,79.60
2023-04-03T00:47:11.671Z,79.40
2023-04-03T00:49:39.678Z,79.80
2023-04-03T00:52:16.615Z,79.60
2023-04-03T00:54:44.674Z,79.10
2023-04-03T00:57:12.561Z,79.10
2023-04-03T00:59:46.682Z,79.70
2023-04-03T01:02:13.577Z,80.00
2023-04-03T01:04:43.600Z,80.40
2023-04-03T01:07:21.948Z,80.90
2023-04-03T01:09:51.253Z,81.10
2023-04-03T01:12:22.048Z,81.20
2023-04-03T01:14:57.609Z,81.10
2023-04-03T01:17:39.709Z,81.50
2023-04-03T01:20:12.668Z,81.60
2023-04-03T01:22:53.969Z,81.80
2023-04-03T01:25:20.815Z,81.90
2023-04-03T01:27:47.555Z,82.20
2023-04-03T01:30:17.580Z,82.00
2023-04-03T01:32:44.512Z,82.20
2023-04-03T01:35:11.956Z,82.40
2023-04-03T01:37:38.790Z,82.60
2023-04-03T01:40:06.572Z,82.70
2023-04-03T01:42:33.440Z,83.00
2023-04-03T01:45:00.242Z,83.20
2023-04-03T01:47:27.011Z,84.00
2023-04-03T01:49:53.849Z,84.00
2023-04-03T01:52:20.676Z,83.70
2023-04-03T01:54:47.378Z,83.60
2023-04-03T01:57:16.014Z,83.40
2023-04-03T01:59:42.891Z,83.30
2023-04-03T02:02:13.405Z,83.10
2023-04-03T02:04:40.397Z,83.30
2023-04-03T02:07:07.371Z,83.80
2023-04-03T02:09:34.484Z,83.80
2023-04-03T02:12:01.265Z,84.10
2023-04-03T02:14:28.462Z,84.00
2023-04-03T02:16:55.682Z,83.90
2023-04-03T02:19:22.402Z,83.80
2023-04-03T02:21:49.111Z,84.00
2023-04-03T02:24:15.933Z,84.30
2023-04-03T02:26:42.640Z,84.10
2023-04-03T02:29:09.392Z,84.50
2023-04-03T02:31:36.253Z,84.70
2023-04-03T02:34:02.976Z,85.00
2023-04-03T02:36:31.172Z,84.80
2023-04-03T02:38:59.335Z,84.30
2023-04-03T02:41:29.303Z,84.50
2023-04-03T02:43:56.042Z,84.80
2023-04-03T02:46:22.781Z,84.70
2023-04-03T02:48:49.511Z,84.90
2023-04-03T02:51:16.504Z,84.80
2023-04-03T02:53:43.222Z,85.00
2023-04-03T02:56:10.298Z,85.00
2023-04-03T02:58:37.267Z,85.30
2023-04-03T03:01:04.224Z,85.50
2023-04-03T03:03:30.932Z,85.50
2023-04-03T03:06:09.458Z,85.70
2023-04-03T03:08:36.592Z,85.30
2023-04-03T03:11:04.427Z,84.60
2023-04-03T03:13:31.869Z,84.60
2023-04-03T03:15:58.982Z,84.90
2023-04-03T03:18:26.204Z,85.10
2023-04-03T03:20:58.427Z,85.20
2023-04-03T03:23:27.089Z,84.90
2023-04-03T03:25:58.808Z,84.90
2023-04-03T03:28:25.947Z,84.90
2023-04-03T03:30:52.736Z,84.60
2023-04-03T03:33:20.248Z,84.80
2023-04-03T03:35:46.985Z,84.70
2023-04-03T03:38:13.874Z,84.50
2023-04-03T03:40:40.687Z,84.70
2023-04-03T03:43:07.439Z,84.90
2023-04-03T03:45:34.275Z,84.50
2023-04-03T03:48:02.621Z,84.70
2023-04-03T03:50:29.482Z,84.90
2023-04-03T03:52:56.337Z,84.90
2023-04-03T03:55:23.266Z,85.00
2023-04-03T03:57:50.038Z,85.10
2023-04-03T04:00:17.124Z,85.10
2023-04-03T04:02:44.242Z,84.60
2023-04-03T04:05:11.179Z,84.80
2023-04-03T04:07:38.038Z,84.70
2023-04-03T04:10:05.854Z,84.60
2023-04-03T04:12:32.665Z,85.00
2023-04-03T04:15:00.266Z,84.90
2023-04-03T04:17:27.501Z,85.20
2023-04-03T04:19:54.262Z,85.30
2023-04-03T04:22:21.191Z,85.20
2023-04-03T04:24:47.952Z,85.40
2023-04-03T04:27:14.662Z,85.50
2023-04-03T04:29:41.427Z,85.40
2023-04-03T04:32:08.322Z,85.60
2023-04-03T04:34:35.044Z,85.60
2023-04-03T04:37:01.996Z,85.40
2023-04-03T04:39:28.963Z,85.40
2023-04-03T04:41:55.682Z,85.50
2023-04-03T04:44:22.463Z,85.40
2023-04-03T04:46:49.197Z,85.50
2023-04-03T04:49:16.003Z,85.70
2023-04-03T04:51:51.581Z,85.60
2023-04-03T04:54:19.382Z,85.80
2023-04-03T04:56:46.144Z,85.60
2023-04-03T04:59:13.006Z,85.20
2023-04-03T05:01:40.253Z,84.80
2023-04-03T05:04:07.462Z,84.30
2023-04-03T05:06:35.978Z,84.10
2023-04-03T05:09:03.222Z,83.60
2023-04-03T05:11:30.136Z,83.60
2023-04-03T05:13:56.883Z,83.70
2023-04-03T05:16:23.639Z,83.10
2023-04-03T05:18:50.632Z,83.40
2023-04-03T05:21:19.201Z,83.30
2023-04-03T05:23:46.125Z,83.30
2023-04-03T05:26:12.823Z,83.60
2023-04-03T05:28:39.575Z,83.40
2023-04-03T05:31:06.310Z,83.10
2023-04-03T05:33:33.056Z,83.00
2023-04-03T05:36:06.498Z,83.30
2023-04-03T05:38:33.812Z,83.20
2023-04-03T05:41:00.983Z,83.40
2023-04-03T05:43:27.748Z,83.30
2023-04-03T05:45:54.566Z,83.10
2023-04-03T05:48:21.628Z,83.20
2023-04-03T05:50:48.609Z,83.20
2023-04-03T05:53:29.342Z,82.70
2023-04-03T05:55:56.174Z,82.90
2023-04-03T05:58:22.914Z,82.20
2023-04-03T06:00:49.732Z,82.00
2023-04-03T06:03:16.939Z,81.80
2023-04-03T06:05:44.490Z,81.90
2023-04-03T06:08:11.272Z,81.40
2023-04-03T06:10:38.276Z,81.30
2023-04-03T06:13:05.688Z,81.80
2023-04-03T06:15:32.678Z,81.90
2023-04-03T06:17:59.443Z,81.60
2023-04-03T06:20:26.931Z,81.30
2023-04-03T06:22:53.724Z,80.30
2023-04-03T06:25:22.101Z,79.50
2023-04-03T06:27:48.887Z,77.40
2023-04-03T06:30:15.698Z,77.20
2023-04-03T06:32:42.544Z,76.20
2023-04-03T06:35:10.079Z,77.20
2023-04-03T06:37:37.022Z,75.50
2023-04-03T06:40:05.080Z,75.20
2023-04-03T06:42:32.375Z,75.30
2023-04-03T06:44:59.616Z,74.90
2023-04-03T06:47:26.443Z,74.90
2023-04-03T06:49:53.385Z,74.60
2023-04-03T06:52:23.532Z,74.90
2023-04-03T06:54:50.344Z,75.30
2023-04-03T06:57:17.130Z,75.60
2023-04-03T06:59:44.087Z,75.00
2023-04-03T07:02:13.449Z,74.80
2023-04-03T07:04:40.439Z,75.30
2023-04-03T07:07:07.311Z,74.10
2023-04-03T07:09:34.237Z,74.80
2023-04-03T07:12:02.361Z,75.40
2023-04-03T07:14:30.546Z,74.90
2023-04-03T07:16:58.424Z,74.70
2023-04-03T07:19:28.441Z,73.00
2023-04-03T07:21:56.125Z,73.10
2023-04-03T07:24:22.973Z,72.20
2023-04-03T07:26:53.839Z,70.70
2023-04-03T07:29:22.471Z,71.00
2023-04-03T07:31:50.238Z,70.00
2023-04-03T07:34:16.997Z,69.80
2023-04-03T07:36:43.773Z,71.00
2023-04-03T07:39:10.643Z,68.90
2023-04-03T07:41:37.884Z,69.50
2023-04-03T07:44:06.444Z,69.90
2023-04-03T07:46:33.895Z,69.20
2023-04-03T07:49:03.088Z,66.70
2023-04-03T07:51:30.811Z,67.40
2023-04-03T07:54:09.315Z,65.70
2023-04-03T07:56:36.201Z,66.20
2023-04-03T07:59:03.638Z,68.40
2023-04-03T08:01:33.369Z,64.80
2023-04-03T08:04:00.461Z,67.10
2023-04-03T08:06:44.823Z,65.70
2023-04-03T08:09:13.203Z,64.40
2023-04-03T08:11:40.938Z,63.30
2023-04-03T08:14:08.090Z,61.50
2023-04-03T08:16:34.895Z,62.20
2023-04-03T08:19:02.637Z,60.20
2023-04-03T08:21:29.495Z,63.50
2023-04-03T08:23:57.500Z,60.60
2023-04-03T08:26:24.468Z,62.50
2023-04-03T08:28:51.437Z,63.60
2023-04-03T08:31:20.988Z,60.20
2023-04-03T08:33:48.405Z,59.40
2023-04-03T08:36:20.488Z,58.70
2023-04-03T08:38:47.909Z,56.10
2023-04-03T08:41:40.752Z,57.60
2023-04-03T08:44:14.337Z,56.50
2023-04-03T08:46:41.405Z,56.30
2023-04-03T08:49:16.264Z,56.30
2023-04-03T08:51:47.996Z,56.80
2023-04-03T08:54:57.204Z,56.80
2023-04-03T08:57:40.680Z,56.30
2023-04-03T09:00:15.384Z,55.00
2023-04-03T09:02:52.034Z,56.10
2023-04-03T09:05:27.304Z,54.70
2023-04-03T09:08:04.481Z,56.80
2023-04-03T09:10:38.146Z,55.10
2023-04-03T09:13:21.810Z,58.70
2023-04-03T09:15:50.271Z,53.30
2023-04-03T09:18:52.022Z,57.60
2023-04-03T09:21:28.930Z,54.80
2023-04-03T09:24:01.555Z,54.20
2023-04-03T09:26:54.383Z,53.80
2023-04-03T09:29:24.034Z,52.50
2023-04-03T09:31:57.314Z,53.50
2023-04-03T09:34:28.648Z,53.60
2023-04-03T09:36:58.973Z,50.10
2023-04-03T09:39:29.501Z,48.90
2023-04-03T09:42:05.379Z,50.70
2023-04-03T09:44:34.959Z,51.20
2023-04-03T09:47:20.169Z,49.30
2023-04-03T09:49:46.986Z,48.40
2023-04-03T09:52:23.845Z,50.80
2023-04-03T09:54:50.597Z,49.30
2023-04-03T09:57:18.622Z,49.00
2023-04-03T10:00:00.595Z,53.30
2023-04-03T10:02:41.240Z,55.90
2023-04-03T10:05:41.482Z,50.90
2023-04-03T10:08:13.968Z,50.40
2023-04-03T10:10:48.836Z,49.80
2023-04-03T10:13:21.455Z,49.80
2023-04-03T10:15:57.084Z,52.80
2023-04-03T10:18:32.443Z,50.70
2023-04-03T10:21:11.898Z,50.90
2023-04-03T10:23:55.760Z,51.30
2023-04-03T10:26:50.659Z,52.10
2023-04-03T10:29:52.696Z,54.50
2023-04-03T10:32:40.337Z,53.60
2023-04-03T10:35:21.581Z,52.60
2023-04-03T10:38:01.188Z,52.60
2023-04-03T10:40:46.246Z,52.30
2023-04-03T10:43:27.880Z,48.50
2023-04-03T10:46:11.786Z,49.00
2023-04-03T10:49:00.160Z,48.80
2023-04-03T10:51:48.448Z,47.40
2023-04-03T10:54:33.203Z,46.30
2023-04-03T10:57:12.651Z,48.00
2023-04-03T10:59:47.694Z,48.10
2023-04-03T11:02:43.117Z,49.80
2023-04-03T11:05:19.057Z,48.60
2023-04-03T11:07:52.502Z,48.60
2023-04-03T11:10:27.151Z,46.10
2023-04-03T11:13:03.413Z,46.30
2023-04-03T11:15:34.071Z,47.00
2023-04-03T11:18:12.031Z,45.00
2023-04-03T11:20:43.017Z,46.70
2023-04-03T11:23:42.279Z,47.60
2023-04-03T11:26:29.378Z,48.20
2023-04-03T11:29:02.397Z,46.10
2023-04-03T11:31:29.202Z,46.40
2023-04-03T11:34:09.995Z,48.50
2023-04-03T11:36:51.184Z,50.70
2023-04-03T11:39:24.036Z,43.70
2023-04-03T11:42:03.312Z,43.40
2023-04-03T11:44:37.628Z,46.30
2023-04-03T11:47:09.780Z,45.90
2023-04-03T11:49:51.340Z,44.00
2023-04-03T11:52:42.478Z,46.90
2023-04-03T11:55:23.067Z,43.90
2023-04-03T11:57:59.143Z,41.10
2023-04-03T12:00:48.087Z,42.80
2023-04-03T12:03:24.946Z,43.30
2023-04-03T12:05:55.017Z,44.40
2023-04-03T12:08:46.949Z,40.30
2023-04-03T12:11:27.307Z,42.10
2023-04-03T12:13:56.880Z,42.40
2023-04-03T12:16:39.170Z,46.30
2023-04-03T12:19:15.083Z,43.90
2023-04-03T12:21:48.120Z,43.90
2023-04-03T12:24:17.862Z,43.10
2023-04-03T12:27:04.041Z,39.50
2023-04-03T12:29:33.898Z,39.70
2023-04-03T12:32:44.187Z,40.00
2023-04-03T12:35:36.054Z,41.00
2023-04-03T12:38:26.292Z,40.00
2023-04-03T12:41:37.131Z,35.60
2023-04-03T12:44:14.492Z,35.30
2023-04-03T12:46:52.047Z,36.80
2023-04-03T12:49:31.108Z,34.20
2023-04-03T12:51:58.143Z,34.90
2023-04-03T12:54:37.020Z,34.00
2023-04-03T12:57:30.208Z,33.80
2023-04-03T12:59:57.443Z,36.90
2023-04-03T13:02:34.421Z,33.30
2023-04-03T13:05:08.560Z,34.70
2023-04-03T13:07:39.877Z,34.00
2023-04-03T13:10:09.857Z,35.70
2023-04-03T13:12:57.964Z,35.60
2023-04-03T13:15:40.611Z,34.10
2023-04-03T13:18:23.275Z,33.20
2023-04-03T13:20:51.091Z,34.40
2023-04-03T13:23:21.509Z,34.30
2023-04-03T13:25:49.285Z,36.70
2023-04-03T13:28:20.032Z,34.00
2023-04-03T13:31:27.281Z,36.70
2023-04-03T13:34:14.249Z,35.10
2023-04-03T13:36:52.149Z,34.70
2023-04-03T13:39:18.820Z,36.10
2023-04-03T13:41:48.883Z,35.70
2023-04-03T13:44:36.804Z,34.70
2023-04-03T13:47:12.582Z,31.70
2023-04-03T13:49:42.269Z,30.50
2023-04-03T13:52:28.642Z,34.20
2023-04-03T13:55:01.406Z,36.40
2023-04-03T13:57:29.924Z,33.10
2023-04-03T13:59:56.791Z,34.70
2023-04-03T14:02:31.917Z,35.40
2023-04-03T14:05:02.319Z,35.40
2023-04-03T14:07:32.152Z,33.60
2023-04-03T14:09:59.295Z,28.40
2023-04-03T14:12:33.947Z,31.40
2023-04-03T14:15:25.264Z,31.70
2023-04-03T14:17:52.732Z,33.40
2023-04-03T14:20:22.796Z,33.50
2023-04-03T14:22:50.420Z,34.90
2023-04-03T14:25:17.938Z,34.40
2023-04-03T14:27:47.818Z,33.50
2023-04-03T14:30:35.323Z,31.60
2023-04-03T14:33:02.836Z,32.60
2023-04-03T14:35:29.647Z,33.60
2023-04-03T14:37:56.685Z,32.50
2023-04-03T14:40:27.249Z,31.30
2023-04-03T14:42:56.092Z,30.50
2023-04-03T14:45:23.840Z,32.40
2023-04-03T14:47:53.481Z,35.00
2023-04-03T14:50:23.711Z,36.40
2023-04-03T14:52:55.025Z,37.40
2023-04-03T14:55:24.285Z,38.30
2023-04-03T14:57:52.961Z,40.80
2023-04-03T15:00:21.953Z,37.90
2023-04-03T15:02:49.742Z,35.30
2023-04-03T15:05:17.675Z,39.10
2023-04-03T15:07:53.116Z,37.70
2023-04-03T15:10:28.602Z,40.50
2023-04-03T15:12:56.680Z,41.70
2023-04-03T15:15:25.225Z,44.10
2023-04-03T15:17:58.832Z,44.00
2023-04-03T15:20:28.537Z,42.90
2023-04-03T15:22:57.181Z,39.80
2023-04-03T15:25:24.987Z,36.80
2023-04-03T15:27:52.131Z,35.70
2023-04-03T15:30:20.739Z,41.20
2023-04-03T15:32:48.007Z,42.50
2023-04-03T15:35:15.044Z,42.30
2023-04-03T15:37:41.864Z,43.70
2023-04-03T15:40:09.357Z,41.10
2023-04-03T15:42:36.105Z,38.40
2023-04-03T15:45:03.142Z,37.50
2023-04-03T15:47:30.458Z,38.30
2023-04-03T15:49:57.628Z,39.60
2023-04-03T15:52:24.903Z,38.10
2023-04-03T15:54:51.701Z,36.50
2023-04-03T15:57:18.637Z,36.90
2023-04-03T15:59:45.504Z,35.60
2023-04-03T16:02:14.294Z,35.10
2023-04-03T16:04:41.930Z,35.90
2023-04-03T16:07:08.904Z,34.80
2023-04-03T16:09:36.783Z,34.30
2023-04-03T16:12:04.541Z,34.10
2023-04-03T16:14:31.490Z,34.90
2023-04-03T16:17:01.985Z,40.00
2023-04-03T16:19:30.785Z,42.30
2023-04-03T16:21:57.853Z,42.90
2023-04-03T16:24:24.613Z,40.10
2023-04-03T16:26:51.376Z,38.20
2023-04-03T16:29:18.113Z,37.60
2023-04-03T16:31:44.887Z,38.80
2023-04-03T16:34:12.501Z,40.20
2023-04-03T16:36:39.312Z,40.40
2023-04-03T16:39:06.210Z,38.90
2023-04-03T16:41:33.127Z,41.50
2023-04-03T16:44:00.349Z,45.10
2023-04-03T16:46:27.108Z,44.40
2023-04-03T16:48:53.871Z,45.70
2023-04-03T16:51:20.587Z,47.50
2023-04-03T16:53:47.314Z,49.20
2023-04-03T16:56:14.036Z,48.20
2023-04-03T16:58:40.767Z,48.40
2023-04-03T17:01:16.078Z,48.80
2023-04-03T17:03:43.066Z,49.00
2023-04-03T17:06:17.182Z,49.20
2023-04-03T17:08:45.916Z,48.70
2023-04-03T17:11:12.847Z,49.20
2023-04-03T17:13:39.712Z,50.40
2023-04-03T17:16:09.890Z,50.60
2023-04-03T17:18:37.527Z,51.50
2023-04-03T17:21:05.525Z,51.00
2023-04-03T17:23:35.435Z,51.00
2023-04-03T17:26:03.752Z,50.70
2023-04-03T17:28:30.579Z,50.60
2023-04-03T17:31:02.494Z,51.20
2023-04-03T17:33:33.234Z,51.70
2023-04-03T17:36:02.379Z,51.10
2023-04-03T17:38:29.151Z,51.30
2023-04-03T17:41:00.368Z,50.10
2023-04-03T17:43:28.202Z,50.50
2023-04-03T17:46:03.672Z,49.60
2023-04-03T17:48:31.593Z,49.50
2023-04-03T17:50:58.515Z,50.30
2023-04-03T17:53:27.447Z,52.00
2023-04-03T17:55:54.267Z,52.40
2023-04-03T17:58:21.016Z,52.10
2023-04-03T18:00:48.325Z,53.00
2023-04-03T18:03:15.062Z,53.60
2023-04-03T18:05:41.808Z,53.80
2023-04-03T18:08:08.703Z,54.00
2023-04-03T18:10:37.258Z,55.50
2023-04-03T18:13:07.221Z,55.70
2023-04-03T18:15:34.009Z,56.10
2023-04-03T18:18:01.337Z,57.00
2023-04-03T18:20:28.159Z,57.00
2023-04-03T18:22:54.951Z,58.40
2023-04-03T18:25:21.690Z,58.00
2023-04-03T18:27:48.763Z,58.50
2023-04-03T18:30:17.505Z,58.50
2023-04-03T18:32:44.746Z,58.50
2023-04-03T18:35:11.724Z,60.80
2023-04-03T18:37:38.453Z,59.90
2023-04-03T18:40:05.910Z,60.30
2023-04-03T18:42:32.661Z,61.40
2023-04-03T18:45:04.294Z,61.20
2023-04-03T18:47:32.227Z,61.90
2023-04-03T18:49:59.304Z,61.60
2023-04-03T18:52:26.067Z,61.80
2023-04-03T18:54:52.961Z,61.90
2023-04-03T18:57:19.804Z,62.50
2023-04-03T18:59:46.491Z,63.30
2023-04-03T19:02:14.220Z,61.60
2023-04-03T19:04:41.325Z,62.20
2023-04-03T19:07:10.107Z,62.10
2023-04-03T19:09:38.504Z,62.50
2023-04-03T19:12:06.315Z,62.60
2023-04-03T19:14:33.210Z,63.50
2023-04-03T19:17:00.361Z,63.20
2023-04-03T19:19:27.239Z,63.10
2023-04-03T19:21:53.992Z,63.40
2023-04-03T19:24:21.639Z,63.50
2023-04-03T19:26:48.372Z,65.10
2023-04-03T19:29:15.235Z,65.20
2023-04-03T19:31:42.014Z,64.90
2023-04-03T19:34:08.844Z,65.30
2023-04-03T19:36:36.345Z,65.80
2023-04-03T19:39:04.413Z,65.80
2023-04-03T19:41:34.398Z,65.70
2023-04-03T19:44:01.683Z,66.20
2023-04-03T19:46:30.608Z,66.00
2023-04-03T19:48:57.628Z,66.50
2023-04-03T19:51:24.441Z,66.60
2023-04-03T19:53:51.906Z,66.80
2023-04-03T19:56:21.153Z,66.90
2023-04-03T19:58:53.669Z,67.00
2023-04-03T20:01:22.457Z,67.60
2023-04-03T20:03:49.548Z,67.20
2023-04-03T20:06:17.062Z,67.20
2023-04-03T20:08:43.918Z,67.60
2023-04-03T20:11:11.108Z,67.40
2023-04-03T20:13:38.581Z,67.80
2023-04-03T20:16:07.044Z,67.50
2023-04-03T20:18:34.811Z,67.30
2023-04-03T20:21:04.637Z,67.30
2023-04-03T20:23:31.610Z,67.20
2023-04-03T20:26:09.245Z,67.10
2023-04-03T20:28:38.139Z,67.40
2023-04-03T20:31:06.536Z,68.10
2023-04-03T20:33:33.891Z,67.90
2023-04-03T20:36:01.976Z,67.20
2023-04-03T20:38:28.814Z,67.40
2023-04-03T20:40:55.622Z,67.10
2023-04-03T20:43:23.288Z,67.10
2023-04-03T20:45:51.204Z,67.00
2023-04-03T20:48:18.667Z,66.50
2023-04-03T20:50:46.407Z,66.30
2023-04-03T20:53:14.709Z,66.30
2023-04-03T20:55:42.471Z,66.20
2023-04-03T20:58:09.530Z,65.80
2023-04-03T21:00:38.479Z,66.10
2023-04-03T21:03:05.944Z,66.10
2023-04-03T21:05:34.989Z,65.60
2023-04-03T21:08:39.913Z,66.40
2023-04-03T21:11:44.063Z,66.50
2023-04-03T21:14:31.727Z,66.20
2023-04-03T21:16:59.041Z,66.40
2023-04-03T21:19:26.277Z,66.60
2023-04-03T21:21:54.468Z,66.80
2023-04-03T21:24:22.869Z,66.80
2023-04-03T21:26:49.714Z,67.40
2023-04-03T21:29:16.488Z,67.90
2023-04-03T21:31:58.885Z,67.10
2023-04-03T21:34:31.621Z,67.20
2023-04-03T21:37:03.928Z,67.20
2023-04-03T21:39:30.841Z,67.60
2023-04-03T21:41:57.587Z,68.40
2023-04-03T21:44:24.981Z,68.20
2023-04-03T21:46:54.624Z,67.30
2023-04-03T21:49:22.744Z,67.90
2023-04-03T21:51:51.389Z,67.60
2023-04-03T21:54:19.045Z,67.50
2023-04-03T21:56:47.980Z,67.90
2023-04-03T21:59:15.712Z,67.60
2023-04-03T22:01:42.923Z,67.60
2023-04-03T22:04:09.724Z,67.80
2023-04-03T22:06:37.875Z,67.20
2023-04-03T22:09:04.837Z,66.80
2023-04-03T22:11:31.599Z,67.20
2023-04-03T22:13:58.363Z,67.30
2023-04-03T22:16:25.443Z,66.00
2023-04-03T22:18:52.890Z,66.00
2023-04-03T22:21:20.977Z,64.50
2023-04-03T22:23:47.711Z,64.10
2023-04-03T22:26:14.533Z,62.30
2023-04-03T22:28:43.359Z,61.30
2023-04-03T22:31:13.481Z,59.80
2023-04-03T22:33:41.536Z,59.90
2023-04-03T22:36:10.296Z,60.00
2023-04-03T22:38:38.846Z,59.30
2023-04-03T22:41:07.592Z,59.40
2023-04-03T22:43:36.390Z,58.80
2023-04-03T22:46:05.295Z,57.70
2023-04-03T22:48:33.350Z,57.70
2023-04-03T22:51:01.087Z,57.10
2023-04-03T22:53:28.912Z,57.30
2023-04-03T22:55:59.345Z,57.00
2023-04-03T22:58:27.516Z,57.90
2023-04-03T23:01:08.136Z,57.10
2023-04-03T23:03:39.553Z,57.60
2023-04-03T23:06:07.695Z,57.80
2023-04-03T23:08:35.609Z,58.00
2023-04-03T23:11:02.576Z,57.50
2023-04-03T23:13:29.685Z,57.40
2023-04-03T23:15:57.874Z,57.80
2023-04-03T23:18:25.857Z,57.90
2023-04-03T23:20:54.603Z,58.10
2023-04-03T23:23:23.449Z,59.10
2023-04-03T23:25:59.277Z,59.60
2023-04-03T23:28:27.233Z,59.40
2023-04-03T23:31:02.013Z,60.00
2023-04-03T23:33:30.368Z,60.10
2023-04-03T23:35:58.514Z,60.60
2023-04-03T23:38:26.113Z,60.70
2023-04-03T23:40:52.989Z,60.20
2023-04-03T23:43:19.731Z,61.60
2023-04-03T23:45:47.208Z,61.80
2023-04-03T23:48:14.056Z,61.20
2023-04-03T23:50:42.102Z,62.10
2023-04-03T23:53:09.714Z,61.60
2023-04-03T23:55:36.848Z,61.20
2023-04-03T23:58:03.816Z,60.90
